Gladstone, New Jersey
Current Conditions -  °F | °C
As of 5:53 PM on Friday 31 Oct 2014 (Local Time) from KSMQ Reporting Station
Overcast Overcast  
Wind Chill: 52°   Ceiling: 4400
Heat Index: 52°   Visibility: 10mi
Dew Point: 35°   Wind: 0mph
Humidity: 53%   Direction: NA
Pressure: 29.89"   Gusts: NA
Location:  40.72°N, 74.67°W
Report Text: KSMQ 312153Z AUTO 00000KT 10SM OVC044 11/02 A2989 RMK AO2 SLP122 T01110017
Loading
Personal Weather Stations






























Interactive Weather Map
Tropical Storm Tracking
New forecast layout! Learn more

10-Day Weather Forecast

Advertisements
Track Severe Weather on mobile